TimeMST,TemperatureF,Dew PointF,Humidity,Sea Level PressureIn,VisibilityMPH,Wind Direction,Wind SpeedMPH,Gust SpeedMPH,PrecipitationIn,Events,Conditions,WindDirDegrees,DateUTC
12:55 AM,42.8,41.0,93,29.97,10.0,SW,11.5,-,N/A,,Overcast,230,2012-11-09 07:55:00
12:57 AM,42.1,41.0,96,29.78,10.0,WSW,12.7,-,N/A,,Overcast,240,2012-11-09 07:57:00
1:29 AM,42.8,39.2,87,29.97,10.0,SW,12.7,23.0,N/A,,Mostly Cloudy,230,2012-11-09 08:29:00
1:57 AM,42.1,39.9,92,29.75,10.0,SW,13.8,-,N/A,,Clear,220,2012-11-09 08:57:00
2:57 AM,43.0,39.0,86,29.74,10.0,SW,17.3,26.5,N/A,,Mostly Cloudy,230,2012-11-09 09:57:00
3:24 AM,42.8,39.2,87,29.95,10.0,SW,15.0,-,N/A,,Mostly Cloudy,230,2012-11-09 10:24:00
3:57 AM,42.1,39.0,89,29.75,10.0,SW,16.1,26.5,N/A,,Mostly Cloudy,220,2012-11-09 10:57:00
4:45 AM,42.8,39.2,87,29.93,10.0,SW,15.0,24.2,N/A,,Mostly Cloudy,220,2012-11-09 11:45:00
4:57 AM,43.0,39.9,89,29.78,10.0,SW,19.6,-,N/A,,Overcast,220,2012-11-09 11:57:00
5:57 AM,44.1,39.9,85,29.75,10.0,SW,19.6,29.9,N/A,,Overcast,220,2012-11-09 12:57:00
6:57 AM,44.1,41.0,89,29.75,10.0,SSW,21.9,29.9,0.00,,Overcast,210,2012-11-09 13:57:00
7:04 AM,44.6,41.0,87,29.90,10.0,SW,23.0,33.4,N/A,,Overcast,220,2012-11-09 14:04:00
7:57 AM,44.1,41.0,89,29.75,10.0,SSW,20.7,38.0,0.00,,Overcast,210,2012-11-09 14:57:00
8:04 AM,44.6,41.0,87,29.90,10.0,SSW,21.9,34.5,N/A,,Mostly Cloudy,210,2012-11-09 15:04:00
8:54 AM,46.4,41.0,81,29.90,10.0,SSW,23.0,42.6,0.00,Rain,Light Rain,210,2012-11-09 15:54:00
8:57 AM,45.0,41.0,86,29.76,10.0,SSW,21.9,42.6,0.00,,Overcast,200,2012-11-09 15:57:00
9:57 AM,44.1,39.9,85,29.75,8.0,SSW,21.9,34.5,0.01,Rain,Light Rain,200,2012-11-09 16:57:00
10:25 AM,46.4,39.2,76,29.89,10.0,SW,25.3,35.7,0.01,Rain,Light Rain,220,2012-11-09 17:25:00
10:57 AM,45.0,37.9,76,29.74,10.0,SW,21.9,32.2,0.01,,Mostly Cloudy,220,2012-11-09 17:57:00
11:08 AM,42.8,39.2,87,29.89,2.5,SW,23.0,29.9,0.01,Rain,Heavy Rain,220,2012-11-09 18:08:00
11:17 AM,41.0,37.4,87,29.89,1.5,SSW,21.9,32.2,0.09,Rain,Heavy Rain,210,2012-11-09 18:17:00
11:21 AM,42.8,39.2,87,29.89,6.0,SW,18.4,32.2,0.11,Rain,Rain,220,2012-11-09 18:21:00
11:46 AM,42.8,41.0,93,29.87,6.0,SW,20.7,31.1,0.15,Rain,Rain,220,2012-11-09 18:46:00
11:57 AM,44.1,41.0,89,29.72,6.0,SW,26.5,35.7,0.16,Rain,Rain,220,2012-11-09 18:57:00
12:28 PM,46.4,39.2,76,29.83,-9999.0,SW,26.5,44.9,0.00,Rain,Rain,220,2012-11-09 19:28:00
12:36 PM,46.4,39.2,76,29.82,-9999.0,SSW,23.0,42.6,0.00,Rain,Rain,210,2012-11-09 19:36:00
12:48 PM,46.4,39.2,76,29.82,10.0,SW,36.8,51.8,0.00,Rain,Rain,220,2012-11-09 19:48:00
12:57 PM,46.0,39.0,76,29.67,10.0,SSW,33.4,48.3,0.00,Rain,Rain,210,2012-11-09 19:57:00
1:57 PM,43.0,37.0,80,29.66,8.0,SSW,24.2,42.6,0.00,Rain,Rain,210,2012-11-09 20:57:00
2:32 PM,42.8,39.2,87,29.81,8.0,SSW,18.4,27.6,0.05,Rain,Rain,210,2012-11-09 21:32:00
2:57 PM,42.1,39.9,92,29.66,9.0,SSW,13.8,23.0,0.06,Rain,Rain,200,2012-11-09 21:57:00
3:12 PM,41.0,37.4,87,29.81,7.0,SSW,13.8,29.9,0.01,Rain,Rain,200,2012-11-09 22:12:00
3:30 PM,39.2,37.4,93,29.80,2.5,SSW,20.7,29.9,0.03,Rain,Rain,210,2012-11-09 22:30:00
3:50 PM,39.2,35.6,87,29.80,6.0,SW,17.3,29.9,0.12,Rain,Rain,220,2012-11-09 22:50:00
3:57 PM,39.0,37.0,93,29.67,6.0,SW,13.8,23.0,0.13,Rain,Rain,230,2012-11-09 22:57:00
4:15 PM,39.2,37.4,93,29.79,6.0,SW,17.3,25.3,0.01,Rain,Rain,220,2012-11-09 23:15:00
4:40 PM,41.0,37.4,87,29.79,10.0,SSW,16.1,28.8,0.03,Rain,Rain,210,2012-11-09 23:40:00
4:57 PM,41.0,37.0,86,29.64,9.0,SSW,19.6,31.1,0.04,Rain,Rain,200,2012-11-09 23:57:00
5:08 PM,41.0,35.6,81,29.78,10.0,SSW,20.7,29.9,0.01,Rain,Rain,210,2012-11-10 00:08:00
5:57 PM,41.0,36.0,82,29.63,10.0,SSW,20.7,35.7,0.02,Rain,Rain,200,2012-11-10 00:57:00
6:54 PM,39.2,35.6,87,29.76,5.0,SSW,20.7,35.7,0.03,Rain,Rain,210,2012-11-10 01:54:00
6:57 PM,39.0,35.1,86,29.63,5.0,SSW,26.5,40.3,0.05,Rain,Rain,210,2012-11-10 01:57:00
8:57 PM,37.0,34.0,89,29.62,8.0,SW,18.4,29.9,0.17,Rain,Rain,230,2012-11-10 03:57:00
9:40 PM,35.6,33.8,93,29.75,6.0,West,17.3,25.3,0.10,Rain,Rain,260,2012-11-10 04:40:00
9:57 PM,35.1,33.1,92,29.64,9.0,WSW,12.7,24.2,0.11,Rain,Rain,240,2012-11-10 04:57:00
10:38 PM,33.8,32.0,93,29.77,1.8,WSW,20.7,33.4,0.02,Rain,Rain,240,2012-11-10 05:38:00
10:56 PM,33.1,30.9,92,29.64,3.0,WSW,15.0,28.8,0.03,Rain,Rain,240,2012-11-10 05:56:00
11:03 PM,33.8,30.2,87,29.76,3.0,WSW,18.4,23.0,0.00,Rain,Rain,240,2012-11-10 06:03:00
11:43 PM,33.8,30.2,87,29.76,10.0,SW,12.7,-,0.00,,Overcast,230,2012-11-10 06:43:00
11:57 PM,32.0,28.9,88,29.66,10.0,SW,15.0,21.9,0.00,Snow,Light Snow,220,2012-11-10 06:57:00